createdAt,value
2024-05-09T00:00:36.484Z,2.70
2024-05-09T00:03:07.529Z,2.50
2024-05-09T00:05:34.871Z,2.90
2024-05-09T00:08:02.176Z,2.70
2024-05-09T00:10:35.960Z,2.40
2024-05-09T00:13:06.171Z,2.60
2024-05-09T00:15:33.814Z,2.40
2024-05-09T00:18:01.746Z,2.90
2024-05-09T00:20:37.348Z,2.50
2024-05-09T00:23:09.724Z,2.60
2024-05-09T00:25:37.532Z,2.60
2024-05-09T00:28:05.470Z,2.40
2024-05-09T00:30:35.595Z,2.60
2024-05-09T00:33:05.885Z,2.20
2024-05-09T00:35:34.237Z,2.90
2024-05-09T00:38:01.578Z,2.60
2024-05-09T00:40:40.676Z,2.60
2024-05-09T00:43:11.151Z,2.70
2024-05-09T00:45:38.473Z,2.30
2024-05-09T00:48:07.056Z,2.10
2024-05-09T00:50:37.363Z,2.20
2024-05-09T00:53:05.787Z,2.50
2024-05-09T00:55:33.935Z,2.60
2024-05-09T00:58:01.619Z,2.40
2024-05-09T01:00:35.960Z,2.40
2024-05-09T01:03:08.224Z,2.40
2024-05-09T01:05:38.372Z,2.70
2024-05-09T01:08:06.212Z,2.40
2024-05-09T01:10:35.409Z,2.60
2024-05-09T01:13:04.209Z,2.70
2024-05-09T01:15:31.576Z,2.60
2024-05-09T01:18:03.678Z,2.60
2024-05-09T01:20:40.151Z,3.00
2024-05-09T01:23:10.613Z,2.30
2024-05-09T01:25:37.946Z,2.50
2024-05-09T01:28:05.785Z,2.70
2024-05-09T01:30:36.197Z,2.90
2024-05-09T01:33:07.284Z,2.90
2024-05-09T01:35:35.984Z,2.90
2024-05-09T01:38:03.830Z,2.70
2024-05-09T01:40:38.301Z,2.60
2024-05-09T01:43:07.847Z,3.00
2024-05-09T01:45:35.685Z,2.40
2024-05-09T01:48:03.456Z,2.40
2024-05-09T01:53:01.406Z,2.90
2024-05-09T01:55:28.579Z,2.80
2024-05-09T01:57:55.619Z,3.00
2024-05-09T02:00:34.509Z,2.60
2024-05-09T02:03:09.262Z,2.70
2024-05-09T02:05:37.041Z,2.60
2024-05-09T02:08:06.035Z,2.70
2024-05-09T02:10:33.634Z,2.80
2024-05-09T02:13:00.907Z,3.00
2024-05-09T02:15:28.348Z,2.80
2024-05-09T02:17:56.046Z,2.80
2024-05-09T02:20:30.534Z,2.60
2024-05-09T02:23:05.565Z,2.50
2024-05-09T02:25:32.799Z,2.80
2024-05-09T02:27:59.913Z,2.90
2024-05-09T02:30:37.682Z,3.10
2024-05-09T02:33:09.865Z,2.80
2024-05-09T02:35:38.637Z,2.60
2024-05-09T02:38:05.959Z,2.30
2024-05-09T02:40:37.162Z,2.90
2024-05-09T02:43:07.185Z,2.80
2024-05-09T02:45:34.643Z,2.90
2024-05-09T02:48:02.197Z,2.70
2024-05-09T02:50:36.969Z,2.70
2024-05-09T02:53:07.843Z,3.00
2024-05-09T02:55:35.234Z,2.70
2024-05-09T02:58:02.269Z,3.00
2024-05-09T03:00:38.089Z,3.10
2024-05-09T03:03:09.581Z,2.70
2024-05-09T03:05:38.671Z,2.50
2024-05-09T03:08:06.590Z,2.70
2024-05-09T03:10:36.621Z,2.80
2024-05-09T03:13:08.545Z,2.80
2024-05-09T03:15:35.760Z,2.60
2024-05-09T03:18:04.259Z,2.40
2024-05-09T03:20:34.921Z,2.20
2024-05-09T03:23:04.713Z,2.20
2024-05-09T03:25:32.365Z,2.30
2024-05-09T03:27:59.683Z,2.90
2024-05-09T03:30:36.099Z,2.40
2024-05-09T03:33:13.496Z,2.30
2024-05-09T03:35:42.447Z,2.40
2024-05-09T03:38:09.776Z,2.20
2024-05-09T03:40:44.107Z,2.60
2024-05-09T03:43:12.611Z,2.50
2024-05-09T03:45:39.647Z,2.10
2024-05-09T03:48:07.804Z,1.70
2024-05-09T03:50:36.302Z,2.00
2024-05-09T03:53:04.542Z,2.10
2024-05-09T03:55:32.247Z,2.30
2024-05-09T03:57:59.796Z,1.60
2024-05-09T04:00:35.150Z,1.70
2024-05-09T04:03:07.713Z,2.10
2024-05-09T04:05:38.767Z,1.80
2024-05-09T04:08:06.377Z,1.90
2024-05-09T04:10:34.919Z,1.40
2024-05-09T04:13:03.273Z,1.90
2024-05-09T04:15:30.995Z,1.80
2024-05-09T04:17:58.389Z,1.70
2024-05-09T04:20:35.954Z,1.60
2024-05-09T04:23:07.303Z,1.60
2024-05-09T04:25:35.110Z,2.20
2024-05-09T04:28:02.467Z,2.30
2024-05-09T04:30:37.324Z,1.90
2024-05-09T04:33:09.128Z,2.10
2024-05-09T04:35:38.322Z,2.00
2024-05-09T04:38:06.241Z,1.90
2024-05-09T04:40:36.346Z,2.00
2024-05-09T04:43:05.580Z,1.90
2024-05-09T04:45:32.973Z,1.70
2024-05-09T04:48:00.559Z,1.90
2024-05-09T04:50:36.428Z,2.00
2024-05-09T04:53:07.625Z,1.60
2024-05-09T04:55:36.134Z,1.60
2024-05-09T04:58:04.911Z,1.90
2024-05-09T05:00:36.832Z,1.80
2024-05-09T05:05:43.100Z,1.50
2024-05-09T05:08:15.137Z,1.80
2024-05-09T05:10:43.056Z,1.90
2024-05-09T05:13:22.365Z,1.80
2024-05-09T05:15:55.094Z,1.90
2024-05-09T05:18:22.873Z,2.00
2024-05-09T05:20:50.774Z,1.80
2024-05-09T05:23:19.100Z,1.60
2024-05-09T05:25:47.461Z,1.90
2024-05-09T05:28:17.638Z,1.40
2024-05-09T05:30:44.885Z,2.00
2024-05-09T05:33:13.312Z,1.80
2024-05-09T05:35:40.966Z,1.90
2024-05-09T05:38:08.221Z,1.90
2024-05-09T05:40:38.202Z,1.80
2024-05-09T05:43:09.941Z,1.80
2024-05-09T05:45:38.276Z,1.90
2024-05-09T05:48:11.712Z,1.80
2024-05-09T05:50:48.511Z,2.00
2024-05-09T05:53:15.893Z,2.10
2024-05-09T05:55:43.074Z,3.10
2024-05-09T05:58:11.013Z,2.30
2024-05-09T06:00:40.517Z,2.20
2024-05-09T06:03:08.844Z,1.80
2024-05-09T06:05:39.142Z,2.30
2024-05-09T06:08:06.955Z,2.00
2024-05-09T06:10:39.179Z,2.40
2024-05-09T06:13:13.223Z,2.40
2024-05-09T06:15:41.359Z,2.10
2024-05-09T06:18:09.681Z,2.30
2024-05-09T06:20:39.065Z,2.40
2024-05-09T06:23:06.979Z,2.00
2024-05-09T06:25:35.161Z,1.80
2024-05-09T06:28:02.736Z,2.10
2024-05-09T06:30:38.374Z,2.20
2024-05-09T06:33:09.751Z,2.20
2024-05-09T06:35:38.313Z,2.00
2024-05-09T06:38:05.893Z,2.30
2024-05-09T06:40:37.928Z,2.50
2024-05-09T06:43:14.510Z,2.20
2024-05-09T06:45:42.407Z,3.10
2024-05-09T06:48:11.237Z,2.20
2024-05-09T06:50:39.824Z,2.20
2024-05-09T06:53:08.064Z,2.20
2024-05-09T06:55:36.241Z,2.50
2024-05-09T06:58:05.401Z,2.40
2024-05-09T07:00:38.845Z,2.30
2024-05-09T07:03:08.564Z,2.40
2024-05-09T07:05:35.972Z,2.20
2024-05-09T07:08:04.386Z,2.60
2024-05-09T07:10:35.194Z,2.00
2024-05-09T07:13:13.324Z,2.30
2024-05-09T07:15:41.286Z,2.20
2024-05-09T07:18:12.865Z,2.00
2024-05-09T07:20:40.679Z,2.00
2024-05-09T07:23:11.650Z,2.70
2024-05-09T07:25:39.511Z,2.10
2024-05-09T07:28:16.894Z,2.30
2024-05-09T07:30:44.477Z,2.00
2024-05-09T07:33:22.655Z,2.60
2024-05-09T07:35:51.414Z,2.50
2024-05-09T07:38:18.623Z,3.10
2024-05-09T07:40:46.056Z,1.90
2024-05-09T07:43:15.218Z,2.20
2024-05-09T07:45:50.703Z,2.10
2024-05-09T07:52:38.008Z,2.30
2024-05-09T07:53:46.339Z,2.30
2024-05-09T07:56:17.760Z,2.50
2024-05-09T07:58:45.183Z,2.40
2024-05-09T08:01:12.337Z,2.40
2024-05-09T08:03:39.605Z,2.30
2024-05-09T08:06:07.220Z,2.50
2024-05-09T08:08:34.450Z,2.40
2024-05-09T08:11:02.228Z,2.50
2024-05-09T08:13:29.392Z,2.20
2024-05-09T08:15:56.557Z,2.60
2024-05-09T08:18:23.777Z,2.00
2024-05-09T08:20:52.171Z,2.20
2024-05-09T08:23:19.305Z,2.30
2024-05-09T08:25:47.550Z,2.00
2024-05-09T08:28:14.848Z,2.00
2024-05-09T08:30:43.267Z,2.10
2024-05-09T08:33:10.206Z,2.30
2024-05-09T08:35:39.839Z,2.40
2024-05-09T08:38:07.941Z,2.30
2024-05-09T08:40:37.211Z,2.30
2024-05-09T08:43:07.419Z,2.00
2024-05-09T08:45:37.710Z,2.10
2024-05-09T08:48:07.676Z,2.70
2024-05-09T08:50:39.280Z,2.20
2024-05-09T08:53:08.046Z,2.60
2024-05-09T08:55:39.429Z,2.20
2024-05-09T08:58:13.339Z,2.60
2024-05-09T09:00:41.899Z,2.10
2024-05-09T09:03:09.433Z,2.10
2024-05-09T09:05:38.524Z,2.50
2024-05-09T09:08:07.019Z,2.30
2024-05-09T09:10:34.204Z,2.60
2024-05-09T09:13:03.862Z,2.50
2024-05-09T09:15:31.231Z,2.30
2024-05-09T09:17:59.355Z,2.20
2024-05-09T09:20:34.072Z,2.40
2024-05-09T09:23:04.595Z,2.10
2024-05-09T09:25:32.171Z,2.40
2024-05-09T09:27:59.528Z,2.90
2024-05-09T09:30:34.959Z,2.70
2024-05-09T09:33:13.814Z,2.20
2024-05-09T09:35:42.372Z,2.60
2024-05-09T09:38:10.619Z,2.30
2024-05-09T09:40:46.612Z,2.50
2024-05-09T09:43:20.666Z,2.50
2024-05-09T09:45:53.468Z,2.80
2024-05-09T09:48:21.401Z,2.50
2024-05-09T09:50:48.625Z,2.50
2024-05-09T09:53:15.778Z,2.00
2024-05-09T09:55:43.083Z,2.50
2024-05-09T09:58:13.389Z,2.40
2024-05-09T10:00:42.153Z,2.60
2024-05-09T10:03:09.518Z,2.20
2024-05-09T10:05:36.909Z,2.80
2024-05-09T10:08:06.497Z,2.70
2024-05-09T10:10:34.659Z,2.70
2024-05-09T10:13:08.856Z,2.50
2024-05-09T10:15:47.421Z,2.50
2024-05-09T10:18:14.833Z,2.60
2024-05-09T10:20:43.605Z,2.40
2024-05-09T10:23:27.137Z,2.70
2024-05-09T10:25:58.531Z,2.60
2024-05-09T10:28:29.642Z,2.90
2024-05-09T10:31:06.660Z,2.60
2024-05-09T10:33:37.934Z,2.50
2024-05-09T10:36:22.135Z,2.40
2024-05-09T10:38:50.340Z,2.40
2024-05-09T10:41:19.611Z,2.90
2024-05-09T10:43:47.058Z,2.60
2024-05-09T10:46:15.049Z,2.70
2024-05-09T10:48:42.953Z,2.10
2024-05-09T10:51:10.760Z,2.50
2024-05-09T10:53:42.321Z,2.10
2024-05-09T10:56:10.269Z,2.50
2024-05-09T10:58:37.417Z,2.70
2024-05-09T11:01:07.009Z,2.60
2024-05-09T11:03:35.517Z,2.30
2024-05-09T11:06:03.354Z,2.10
2024-05-09T11:08:31.585Z,2.20
2024-05-09T11:11:02.383Z,2.20
2024-05-09T11:13:30.826Z,1.90
2024-05-09T11:15:59.582Z,2.00
2024-05-09T11:18:34.817Z,2.60
2024-05-09T11:21:11.154Z,2.30
2024-05-09T11:23:38.509Z,2.20
2024-05-09T11:26:05.646Z,2.00
2024-05-09T11:28:34.388Z,2.10
2024-05-09T11:31:07.024Z,2.00
2024-05-09T11:33:45.050Z,1.90
2024-05-09T11:36:12.232Z,2.20
2024-05-09T11:38:40.076Z,2.00
2024-05-09T11:41:07.416Z,2.10
2024-05-09T11:43:34.608Z,2.20
2024-05-09T11:46:02.512Z,2.40
2024-05-09T11:48:30.877Z,1.90
2024-05-09T11:50:58.234Z,1.80
2024-05-09T11:53:25.331Z,2.00
2024-05-09T11:55:52.530Z,2.60
2024-05-09T11:58:20.994Z,2.10
2024-05-09T12:00:48.612Z,2.20
2024-05-09T12:03:15.984Z,1.90
2024-05-09T12:05:43.306Z,1.90
2024-05-09T12:08:10.556Z,1.90
2024-05-09T12:10:38.211Z,1.90
2024-05-09T12:13:07.223Z,1.80
2024-05-09T12:15:36.611Z,2.10
2024-05-09T12:18:06.041Z,2.00
2024-05-09T12:20:37.595Z,2.20
2024-05-09T12:23:07.863Z,2.00
2024-05-09T12:25:35.853Z,2.00
2024-05-09T12:28:03.538Z,1.80
2024-05-09T12:30:37.247Z,2.20
2024-05-09T12:33:08.465Z,1.80
2024-05-09T12:35:36.082Z,2.10
2024-05-09T12:38:03.559Z,1.90
2024-05-09T12:40:35.879Z,2.00
2024-05-09T12:43:06.952Z,2.10
2024-05-09T12:45:34.579Z,1.90
2024-05-09T12:48:03.834Z,2.20
2024-05-09T12:50:34.183Z,2.10
2024-05-09T12:53:03.655Z,1.80
2024-05-09T12:55:40.355Z,2.50
2024-05-09T12:58:16.681Z,2.00
2024-05-09T13:00:44.998Z,2.00
2024-05-09T13:03:12.704Z,1.80
2024-05-09T13:05:46.394Z,1.60
2024-05-09T13:08:13.502Z,1.80
2024-05-09T13:10:40.907Z,1.60
2024-05-09T13:13:11.518Z,1.80
2024-05-09T13:15:38.816Z,1.80
2024-05-09T13:18:06.277Z,2.00
2024-05-09T13:20:36.111Z,1.50
2024-05-09T13:23:05.923Z,2.10
2024-05-09T13:25:33.917Z,1.80
2024-05-09T13:28:01.069Z,1.90
2024-05-09T13:30:35.774Z,2.00
2024-05-09T13:33:08.218Z,1.80
2024-05-09T13:35:36.148Z,1.50
2024-05-09T13:38:04.716Z,1.80
2024-05-09T13:40:35.002Z,1.50
2024-05-09T13:43:04.536Z,1.50
2024-05-09T13:45:32.941Z,1.60
2024-05-09T13:48:01.474Z,1.80
2024-05-09T13:50:35.708Z,1.40
2024-05-09T13:53:06.191Z,1.60
2024-05-09T13:55:36.453Z,1.60
2024-05-09T13:58:03.922Z,1.40
2024-05-09T14:00:42.470Z,1.70
2024-05-09T14:03:15.003Z,1.40
2024-05-09T14:05:42.790Z,1.60
2024-05-09T14:08:10.014Z,1.40
2024-05-09T14:10:42.968Z,1.50
2024-05-09T14:15:37.375Z,1.70
2024-05-09T14:18:05.084Z,1.70
2024-05-09T14:20:32.776Z,1.50
2024-05-09T14:23:00.573Z,1.40
2024-05-09T14:25:29.247Z,1.80
2024-05-09T14:27:59.682Z,1.50
2024-05-09T14:30:34.665Z,1.90
2024-05-09T14:33:06.082Z,1.70
2024-05-09T14:35:33.901Z,1.70
2024-05-09T14:38:01.103Z,1.70
2024-05-09T14:40:38.838Z,1.60
2024-05-09T14:43:13.872Z,1.90
2024-05-09T14:45:41.820Z,1.70
2024-05-09T14:48:09.872Z,1.60
2024-05-09T14:50:39.434Z,2.20
2024-05-09T14:53:11.585Z,1.50
2024-05-09T14:55:40.190Z,1.70
2024-05-09T14:58:09.353Z,1.70
2024-05-09T15:00:39.450Z,1.40
2024-05-09T15:03:08.825Z,1.60
2024-05-09T15:05:36.014Z,1.70
2024-05-09T15:08:05.709Z,2.10
2024-05-09T15:10:35.655Z,2.00
2024-05-09T15:13:04.867Z,1.90
2024-05-09T15:15:32.200Z,1.70
2024-05-09T15:17:59.928Z,1.80
2024-05-09T15:20:33.924Z,1.70
2024-05-09T15:23:04.458Z,1.70
2024-05-09T15:25:35.951Z,1.50
2024-05-09T15:28:06.658Z,1.80
2024-05-09T15:30:34.847Z,1.70
2024-05-09T15:33:06.221Z,1.50
2024-05-09T15:35:34.904Z,1.50
2024-05-09T15:38:05.068Z,1.90
2024-05-09T15:40:38.906Z,1.70
2024-05-09T15:43:08.985Z,1.60
2024-05-09T15:45:37.455Z,1.80
2024-05-09T15:48:05.241Z,1.30
2024-05-09T15:50:38.785Z,1.60
2024-05-09T15:53:09.904Z,1.50
2024-05-09T15:55:38.156Z,1.70
2024-05-09T15:58:05.712Z,1.60
2024-05-09T16:00:38.734Z,1.30
2024-05-09T16:03:09.980Z,1.50
2024-05-09T16:05:37.737Z,2.00
2024-05-09T16:08:06.034Z,1.70
2024-05-09T16:10:34.774Z,1.60
2024-05-09T16:13:03.341Z,1.90
2024-05-09T16:15:31.334Z,1.40
2024-05-09T16:17:59.562Z,2.40
2024-05-09T16:20:34.965Z,1.70
2024-05-09T16:23:07.355Z,1.70
2024-05-09T16:25:34.564Z,1.60
2024-05-09T16:28:03.690Z,1.50
2024-05-09T16:30:35.294Z,1.70
2024-05-09T16:33:04.848Z,1.60
2024-05-09T16:35:33.827Z,1.60
2024-05-09T16:38:01.909Z,1.50
2024-05-09T16:40:36.999Z,1.50
2024-05-09T16:43:11.209Z,1.80
2024-05-09T16:45:45.504Z,1.90
2024-05-09T16:48:13.651Z,1.90
2024-05-09T16:50:40.710Z,2.40
2024-05-09T16:53:08.076Z,1.70
2024-05-09T16:55:35.718Z,1.90
2024-05-09T16:58:03.836Z,2.20
2024-05-09T17:00:39.728Z,2.00
2024-05-09T17:03:12.594Z,1.90
2024-05-09T17:05:40.959Z,1.90
2024-05-09T17:08:08.390Z,1.60
2024-05-09T17:10:35.961Z,1.60
2024-05-09T17:13:04.784Z,1.80
2024-05-09T17:15:33.529Z,1.80
2024-05-09T17:18:00.890Z,1.80
2024-05-09T17:20:33.248Z,1.70
2024-05-09T17:23:03.891Z,1.70
2024-05-09T17:25:31.175Z,1.80
2024-05-09T17:28:04.376Z,1.60
2024-05-09T17:30:35.975Z,2.10
2024-05-09T17:33:05.579Z,1.50
2024-05-09T17:35:32.897Z,1.60
2024-05-09T17:38:01.048Z,1.50
2024-05-09T17:40:33.485Z,1.60
2024-05-09T17:43:04.706Z,1.40
2024-05-09T17:45:32.639Z,1.60
2024-05-09T17:48:00.443Z,2.00
2024-05-09T17:50:34.389Z,1.50
2024-05-09T17:53:05.088Z,1.90
2024-05-09T17:55:32.560Z,1.60
2024-05-09T17:57:59.835Z,1.80
2024-05-09T18:02:56.874Z,1.90
2024-05-09T18:05:24.088Z,1.80
2024-05-09T18:07:51.439Z,1.90
2024-05-09T18:10:25.431Z,1.70
2024-05-09T18:12:57.172Z,1.80
2024-05-09T18:15:24.355Z,1.70
2024-05-09T18:17:51.327Z,1.60
2024-05-09T18:20:28.397Z,2.10
2024-05-09T18:23:04.924Z,1.70
2024-05-09T18:25:31.986Z,1.70
2024-05-09T18:27:59.048Z,1.80
2024-05-09T18:30:32.315Z,1.60
2024-05-09T18:33:02.614Z,1.50
2024-05-09T18:35:30.010Z,1.80
2024-05-09T18:37:57.159Z,1.60
2024-05-09T18:40:32.541Z,1.50
2024-05-09T18:43:03.798Z,1.50
2024-05-09T18:45:31.180Z,1.80
2024-05-09T18:47:58.687Z,1.70
2024-05-09T18:50:33.700Z,1.80
2024-05-09T18:53:08.121Z,1.90
2024-05-09T18:55:35.486Z,1.70
2024-05-09T18:58:06.052Z,1.60
2024-05-09T19:00:36.977Z,2.10
2024-05-09T19:03:07.791Z,1.80
2024-05-09T19:05:36.243Z,2.00
2024-05-09T19:08:04.252Z,2.10
2024-05-09T19:10:34.641Z,1.80
2024-05-09T19:13:07.294Z,1.80
2024-05-09T19:15:38.795Z,1.90
2024-05-09T19:18:06.299Z,2.20
2024-05-09T19:20:35.514Z,2.10
2024-05-09T19:23:05.106Z,2.00
2024-05-09T19:25:32.490Z,2.00
2024-05-09T19:28:00.006Z,2.20
2024-05-09T19:30:36.505Z,2.20
2024-05-09T19:33:08.080Z,2.30
2024-05-09T19:35:35.472Z,1.90
2024-05-09T19:38:02.560Z,1.90
2024-05-09T19:40:32.400Z,1.90
2024-05-09T19:43:02.008Z,2.20
2024-05-09T19:45:30.122Z,2.00
2024-05-09T19:47:57.481Z,1.80
2024-05-09T19:50:32.460Z,2.10
2024-05-09T19:53:07.880Z,2.20
2024-05-09T19:55:35.024Z,1.90
2024-05-09T19:58:04.776Z,2.00
2024-05-09T20:00:36.277Z,2.00
2024-05-09T20:03:05.664Z,1.90
2024-05-09T20:05:33.449Z,1.90
2024-05-09T20:08:00.796Z,1.90
2024-05-09T20:10:32.409Z,2.10
2024-05-09T20:13:02.118Z,2.00
2024-05-09T20:15:30.654Z,1.90
2024-05-09T20:17:57.627Z,1.90
2024-05-09T20:20:33.610Z,2.00
2024-05-09T20:23:05.804Z,1.80
2024-05-09T20:25:32.725Z,1.80
2024-05-09T20:27:59.854Z,1.80
2024-05-09T20:30:32.069Z,2.10
2024-05-09T20:33:01.464Z,1.70
2024-05-09T20:35:31.198Z,2.30
2024-05-09T20:37:58.254Z,1.90
2024-05-09T20:40:31.485Z,2.30
2024-05-09T20:43:02.222Z,1.90
2024-05-09T20:45:29.739Z,1.90
2024-05-09T20:47:56.903Z,2.10
2024-05-09T20:50:32.771Z,1.90
2024-05-09T20:53:05.532Z,2.50
2024-05-09T20:55:32.991Z,2.50
2024-05-09T20:58:00.188Z,2.60
2024-05-09T21:00:35.220Z,2.50
2024-05-09T21:03:07.407Z,2.40
2024-05-09T21:05:35.439Z,2.80
2024-05-09T21:08:03.181Z,2.70
2024-05-09T21:10:33.268Z,2.50
2024-05-09T21:13:02.235Z,2.80
2024-05-09T21:15:30.705Z,2.70
2024-05-09T21:17:58.237Z,2.40
2024-05-09T21:20:31.118Z,2.80
2024-05-09T21:23:00.386Z,3.40
2024-05-09T21:25:27.639Z,3.50
2024-05-09T21:27:54.980Z,3.20
2024-05-09T21:30:32.479Z,3.10
2024-05-09T21:33:08.487Z,3.00
2024-05-09T21:35:36.010Z,2.90
2024-05-09T21:38:03.879Z,3.00
2024-05-09T21:40:34.700Z,3.30
2024-05-09T21:43:04.820Z,2.80
2024-05-09T21:45:32.714Z,2.30
2024-05-09T21:47:59.974Z,2.90
2024-05-09T21:50:35.853Z,2.90
2024-05-09T21:53:07.144Z,2.80
2024-05-09T21:55:34.773Z,3.10
2024-05-09T21:58:02.101Z,2.70
2024-05-09T22:00:36.020Z,2.50
2024-05-09T22:03:09.462Z,2.60
2024-05-09T22:05:38.494Z,1.50
2024-05-09T22:08:06.440Z,2.80
2024-05-09T22:10:35.771Z,2.60
2024-05-09T22:13:05.744Z,2.20
2024-05-09T22:15:38.480Z,2.30
2024-05-09T22:18:07.161Z,3.00
2024-05-09T22:20:38.028Z,2.80
2024-05-09T22:23:07.544Z,3.00
2024-05-09T22:25:35.440Z,3.00
2024-05-09T22:28:03.082Z,2.90
2024-05-09T22:30:36.232Z,2.60
2024-05-09T22:33:08.029Z,2.80
2024-05-09T22:35:35.267Z,2.80
2024-05-09T22:38:02.855Z,3.00
2024-05-09T22:40:38.978Z,3.30
2024-05-09T22:43:17.695Z,3.00
2024-05-09T22:45:46.498Z,3.00
2024-05-09T22:48:13.799Z,3.50
2024-05-09T22:50:41.087Z,3.30
2024-05-09T22:53:08.362Z,3.40
2024-05-09T22:55:35.528Z,3.20
2024-05-09T22:58:02.605Z,3.20
2024-05-09T23:00:32.312Z,2.90
2024-05-09T23:03:00.569Z,3.00
2024-05-09T23:05:28.036Z,2.80
2024-05-09T23:07:55.205Z,2.80
2024-05-09T23:10:30.825Z,3.10
2024-05-09T23:13:02.288Z,2.70
2024-05-09T23:15:29.636Z,3.00
2024-05-09T23:17:56.638Z,2.70
2024-05-09T23:20:33.396Z,2.70
2024-05-09T23:23:08.017Z,2.60
2024-05-09T23:25:36.359Z,2.70
2024-05-09T23:28:03.779Z,2.80
2024-05-09T23:30:37.484Z,2.70
2024-05-09T23:33:10.857Z,2.60
2024-05-09T23:35:40.178Z,2.80
2024-05-09T23:38:07.146Z,2.80
2024-05-09T23:40:39.478Z,3.00
2024-05-09T23:43:09.877Z,2.60
2024-05-09T23:45:37.320Z,2.60
2024-05-09T23:48:05.738Z,2.50
2024-05-09T23:50:36.340Z,2.50
2024-05-09T23:53:06.178Z,2.90
2024-05-09T23:55:34.267Z,2.70
2024-05-09T23:58:01.238Z,2.80
